createdAt,value
2022-11-28T00:01:32.447Z,11.30
2022-11-28T00:04:00.116Z,11.20
2022-11-28T00:06:27.991Z,11.20
2022-11-28T00:08:57.821Z,11.10
2022-11-28T00:11:24.844Z,11.20
2022-11-28T00:13:52.046Z,11.20
2022-11-28T00:16:22.656Z,11.20
2022-11-28T00:18:54.461Z,11.20
2022-11-28T00:21:22.601Z,11.10
2022-11-28T00:23:50.523Z,11.20
2022-11-28T00:26:28.043Z,11.20
2022-11-28T00:28:56.268Z,11.20
2022-11-28T00:31:25.973Z,11.20
2022-11-28T00:33:53.555Z,11.10
2022-11-28T00:36:21.600Z,11.20
2022-11-28T00:38:51.124Z,11.20
2022-11-28T00:41:23.500Z,11.20
2022-11-28T00:43:51.602Z,11.30
2022-11-28T00:46:23.142Z,11.30
2022-11-28T00:48:50.893Z,11.20
2022-11-28T00:51:21.143Z,11.00
2022-11-28T00:53:49.903Z,11.20
2022-11-28T00:56:27.868Z,11.10
2022-11-28T00:58:56.272Z,11.10
2022-11-28T01:01:41.498Z,11.00
2022-11-28T01:04:13.218Z,11.00
2022-11-28T01:06:43.387Z,11.10
2022-11-28T01:09:14.070Z,11.20
2022-11-28T01:11:42.567Z,11.20
2022-11-28T01:14:11.278Z,11.20
2022-11-28T01:16:39.111Z,11.10
2022-11-28T01:19:09.539Z,11.00
2022-11-28T01:21:36.688Z,11.00
2022-11-28T01:24:04.026Z,11.00
2022-11-28T01:26:31.079Z,10.90
2022-11-28T01:29:00.403Z,10.80
2022-11-28T01:31:29.470Z,10.80
2022-11-28T01:33:57.407Z,10.70
2022-11-28T01:36:25.804Z,10.70
2022-11-28T01:38:53.060Z,10.60
2022-11-28T01:41:24.563Z,10.60
2022-11-28T01:44:06.921Z,10.60
2022-11-28T01:46:40.834Z,10.50
2022-11-28T01:49:30.673Z,10.50
2022-11-28T01:52:05.985Z,10.50
2022-11-28T01:54:35.654Z,10.40
2022-11-28T01:57:06.847Z,10.40
2022-11-28T01:59:37.795Z,10.40
2022-11-28T02:02:09.868Z,10.40
2022-11-28T02:04:36.782Z,10.40
2022-11-28T02:07:03.752Z,10.40
2022-11-28T02:09:31.044Z,10.40
2022-11-28T02:12:20.505Z,10.40
2022-11-28T02:15:12.075Z,10.40
2022-11-28T02:17:59.852Z,10.30
2022-11-28T02:20:38.966Z,10.30
2022-11-28T02:23:09.146Z,10.40
2022-11-28T02:25:44.937Z,10.40
2022-11-28T02:28:31.661Z,10.30
2022-11-28T02:31:37.294Z,10.40
2022-11-28T02:34:12.362Z,10.30
2022-11-28T02:36:50.874Z,10.30
2022-11-28T02:39:36.603Z,10.20
2022-11-28T02:42:22.573Z,10.20
2022-11-28T02:45:07.927Z,10.20
2022-11-28T02:47:41.297Z,10.20
2022-11-28T02:50:28.527Z,10.10
2022-11-28T02:53:03.842Z,10.20
2022-11-28T02:55:31.751Z,10.10
2022-11-28T02:57:58.990Z,10.10
2022-11-28T03:00:26.968Z,10.10
2022-11-28T03:03:27.684Z,10.20
2022-11-28T03:06:16.351Z,10.10
2022-11-28T03:08:43.574Z,10.10
2022-11-28T03:11:55.117Z,10.10
2022-11-28T03:14:41.313Z,10.20
2022-11-28T03:17:20.150Z,10.20
2022-11-28T03:19:55.249Z,10.10
2022-11-28T03:22:47.365Z,10.20
2022-11-28T03:25:34.135Z,10.10
2022-11-28T03:28:29.569Z,10.10
2022-11-28T03:31:47.223Z,10.00
2022-11-28T03:34:19.349Z,10.10
2022-11-28T03:36:55.197Z,10.00
2022-11-28T03:39:28.255Z,10.10
2022-11-28T03:41:59.758Z,10.00
2022-11-28T03:44:31.618Z,10.00
2022-11-28T03:47:02.141Z,10.10
2022-11-28T03:49:43.248Z,10.10
2022-11-28T03:52:23.532Z,10.10
2022-11-28T03:54:56.047Z,10.10
2022-11-28T04:00:21.183Z,10.10
2022-11-28T04:03:21.429Z,10.10
2022-11-28T04:06:20.286Z,10.10
2022-11-28T04:08:58.340Z,10.20
2022-11-28T04:11:36.655Z,10.10
2022-11-28T04:14:37.617Z,10.10
2022-11-28T04:17:12.794Z,10.10
2022-11-28T04:19:55.181Z,10.10
2022-11-28T04:22:30.497Z,10.10
2022-11-28T04:25:08.795Z,10.00
2022-11-28T04:27:40.075Z,10.00
2022-11-28T04:30:08.886Z,10.00
2022-11-28T04:32:40.451Z,10.10
2022-11-28T04:35:12.354Z,10.00
2022-11-28T04:37:41.000Z,10.00
2022-11-28T04:40:11.340Z,10.00
2022-11-28T04:42:59.896Z,10.00
2022-11-28T04:45:30.109Z,10.10
2022-11-28T04:47:57.791Z,10.00
2022-11-28T04:50:32.151Z,10.00
2022-11-28T04:53:18.491Z,10.20
2022-11-28T04:55:51.646Z,10.20
2022-11-28T04:58:28.442Z,10.10
2022-11-28T05:00:56.288Z,10.10
2022-11-28T05:03:28.276Z,10.10
2022-11-28T05:05:55.312Z,10.10
2022-11-28T05:08:22.425Z,10.10
2022-11-28T05:10:49.589Z,10.10
2022-11-28T05:13:16.709Z,10.10
2022-11-28T05:15:43.729Z,10.10
2022-11-28T05:18:11.524Z,10.10
2022-11-28T05:20:39.783Z,10.00
2022-11-28T05:23:07.288Z,10.10
2022-11-28T05:25:34.261Z,10.10
2022-11-28T05:28:01.680Z,10.10
2022-11-28T05:30:28.890Z,10.10
2022-11-28T05:32:56.304Z,10.10
2022-11-28T05:35:24.232Z,10.30
2022-11-28T05:37:51.388Z,10.20
2022-11-28T05:40:18.398Z,10.20
2022-11-28T05:42:45.661Z,10.20
2022-11-28T05:45:13.122Z,10.10
2022-11-28T05:47:40.118Z,10.10
2022-11-28T05:50:08.137Z,10.00
2022-11-28T05:52:35.100Z,10.00
2022-11-28T05:55:02.004Z,10.00
2022-11-28T05:57:30.099Z,10.10
2022-11-28T05:59:57.517Z,10.00
2022-11-28T06:02:24.654Z,10.10
2022-11-28T06:04:51.655Z,10.20
2022-11-28T06:07:20.008Z,10.30
2022-11-28T06:09:47.197Z,10.30
2022-11-28T06:12:15.593Z,10.20
2022-11-28T06:14:42.879Z,10.20
2022-11-28T06:17:10.257Z,10.10
2022-11-28T06:19:37.691Z,10.10
2022-11-28T06:22:04.832Z,10.30
2022-11-28T06:24:31.834Z,10.20
2022-11-28T06:26:58.829Z,10.10
2022-11-28T06:29:28.512Z,10.10
2022-11-28T06:31:56.192Z,10.10
2022-11-28T06:34:26.455Z,10.10
2022-11-28T06:36:53.394Z,10.00
2022-11-28T06:39:20.557Z,10.00
2022-11-28T06:41:47.514Z,9.90
2022-11-28T06:44:16.471Z,10.00
2022-11-28T06:46:43.925Z,10.10
2022-11-28T06:49:13.168Z,10.10
2022-11-28T06:51:41.026Z,10.00
2022-11-28T06:54:08.715Z,10.10
2022-11-28T06:56:35.953Z,10.10
2022-11-28T06:59:03.441Z,10.00
2022-11-28T07:01:32.103Z,10.00
2022-11-28T07:03:59.443Z,10.10
2022-11-28T07:06:27.042Z,10.00
2022-11-28T07:08:56.541Z,10.00
2022-11-28T07:11:26.248Z,10.10
2022-11-28T07:13:53.971Z,10.00
2022-11-28T07:16:39.954Z,10.00
2022-11-28T07:19:07.125Z,9.90
2022-11-28T07:21:34.018Z,9.90
2022-11-28T07:24:01.046Z,9.90
2022-11-28T07:26:28.388Z,9.90
2022-11-28T07:28:58.375Z,9.90
2022-11-28T07:31:28.854Z,9.90
2022-11-28T07:33:56.030Z,10.00
2022-11-28T07:36:25.764Z,9.90
2022-11-28T07:38:58.214Z,10.00
2022-11-28T07:41:27.241Z,10.00
2022-11-28T07:43:59.828Z,10.00
2022-11-28T07:46:29.032Z,10.00
2022-11-28T07:48:56.813Z,10.10
2022-11-28T07:51:33.264Z,10.20
2022-11-28T07:54:01.761Z,10.20
2022-11-28T07:57:04.089Z,10.20
2022-11-28T07:59:18.744Z,10.10
2022-11-28T08:01:45.878Z,10.10
2022-11-28T08:04:13.039Z,10.10
2022-11-28T08:06:42.274Z,10.20
2022-11-28T08:09:14.031Z,10.20
2022-11-28T08:11:41.936Z,10.20
2022-11-28T08:14:09.336Z,10.20
2022-11-28T08:16:37.160Z,10.30
2022-11-28T08:19:04.617Z,10.30
2022-11-28T08:21:35.528Z,10.30
2022-11-28T08:24:04.280Z,10.40
2022-11-28T08:26:33.911Z,10.30
2022-11-28T08:29:02.292Z,10.30
2022-11-28T08:31:32.096Z,10.30
2022-11-28T08:34:03.236Z,10.30
2022-11-28T08:36:30.662Z,10.40
2022-11-28T08:41:46.784Z,10.30
2022-11-28T08:44:14.041Z,10.30
2022-11-28T08:46:42.180Z,10.20
2022-11-28T08:49:11.465Z,10.20
2022-11-28T08:51:38.522Z,10.30
2022-11-28T08:54:05.788Z,10.30
2022-11-28T08:56:34.242Z,10.20
2022-11-28T08:59:01.609Z,10.30
2022-11-28T09:01:28.772Z,10.30
2022-11-28T09:03:58.978Z,10.30
2022-11-28T09:06:27.385Z,10.60
2022-11-28T09:08:54.433Z,10.50
2022-11-28T09:11:22.841Z,10.60
2022-11-28T09:13:50.461Z,10.50
2022-11-28T09:16:18.301Z,10.50
2022-11-28T09:18:45.431Z,10.50
2022-11-28T09:21:14.573Z,10.50
2022-11-28T09:23:43.403Z,10.60
2022-11-28T09:26:16.510Z,10.60
2022-11-28T09:28:44.093Z,10.60
2022-11-28T09:31:12.682Z,10.50
2022-11-28T09:33:40.211Z,10.60
2022-11-28T09:36:12.988Z,10.60
2022-11-28T09:38:40.218Z,10.60
2022-11-28T09:41:27.957Z,10.60
2022-11-28T09:44:32.030Z,10.70
2022-11-28T09:47:03.115Z,10.60
2022-11-28T09:49:41.514Z,10.70
2022-11-28T09:52:36.612Z,10.80
2022-11-28T09:55:21.231Z,10.80
2022-11-28T09:57:53.578Z,10.80
2022-11-28T10:00:23.591Z,10.80
2022-11-28T10:03:05.929Z,10.80
2022-11-28T10:05:52.362Z,10.80
2022-11-28T10:08:22.380Z,10.90
2022-11-28T10:10:59.543Z,10.90
2022-11-28T10:13:41.140Z,10.90
2022-11-28T10:16:30.349Z,11.00
2022-11-28T10:19:01.663Z,11.00
2022-11-28T10:21:59.146Z,11.00
2022-11-28T10:24:39.568Z,11.10
2022-11-28T10:27:10.667Z,11.00
2022-11-28T10:29:48.160Z,11.00
2022-11-28T10:32:18.892Z,11.10
2022-11-28T10:35:04.477Z,11.10
2022-11-28T10:37:35.725Z,11.10
2022-11-28T10:40:21.651Z,11.10
2022-11-28T10:43:23.321Z,11.10
2022-11-28T10:46:18.111Z,11.10
2022-11-28T10:49:22.070Z,11.20
2022-11-28T10:52:13.153Z,11.30
2022-11-28T10:55:15.390Z,11.30
2022-11-28T10:58:13.953Z,11.40
2022-11-28T11:00:45.384Z,11.30
2022-11-28T11:03:18.353Z,11.30
2022-11-28T11:05:46.919Z,11.40
2022-11-28T11:08:19.635Z,11.50
2022-11-28T11:11:16.798Z,11.70
2022-11-28T11:14:05.845Z,11.60
2022-11-28T11:16:54.023Z,11.70
2022-11-28T11:19:34.528Z,11.70
2022-11-28T11:22:20.671Z,11.80
2022-11-28T11:25:15.787Z,11.70
2022-11-28T11:28:03.409Z,11.80
2022-11-28T11:30:34.659Z,11.80
2022-11-28T11:33:04.610Z,11.80
2022-11-28T11:35:43.193Z,11.90
2022-11-28T11:38:18.055Z,11.90
2022-11-28T11:40:45.386Z,11.90
2022-11-28T11:43:24.671Z,11.90
2022-11-28T11:46:12.677Z,11.90
2022-11-28T11:48:43.384Z,12.00
2022-11-28T11:51:29.439Z,11.90
2022-11-28T11:54:12.880Z,11.90
2022-11-28T11:56:44.647Z,12.10
2022-11-28T11:59:23.639Z,12.30
2022-11-28T12:01:57.275Z,12.30
2022-11-28T12:04:53.859Z,12.20
2022-11-28T12:07:37.250Z,12.20
2022-11-28T12:10:07.574Z,12.20
2022-11-28T12:12:37.264Z,12.30
2022-11-28T12:15:12.154Z,12.40
2022-11-28T12:18:04.915Z,12.30
2022-11-28T12:20:46.790Z,12.30
2022-11-28T12:23:35.013Z,12.30
2022-11-28T12:26:10.939Z,12.30
2022-11-28T12:28:59.166Z,12.40
2022-11-28T12:31:37.995Z,12.40
2022-11-28T12:34:28.860Z,12.30
2022-11-28T12:37:13.091Z,12.30
2022-11-28T12:40:12.060Z,12.30
2022-11-28T12:42:56.751Z,12.30
2022-11-28T12:45:35.013Z,12.50
2022-11-28T12:48:22.889Z,12.60
2022-11-28T12:51:14.428Z,12.60
2022-11-28T12:53:46.596Z,12.50
2022-11-28T12:56:32.647Z,12.40
2022-11-28T12:59:29.640Z,12.40
2022-11-28T13:02:15.285Z,12.40
2022-11-28T13:05:06.141Z,12.30
2022-11-28T13:07:33.942Z,12.40
2022-11-28T13:10:07.615Z,12.40
2022-11-28T13:13:03.475Z,12.40
2022-11-28T13:15:51.703Z,12.40
2022-11-28T13:18:38.581Z,12.40
2022-11-28T13:21:17.756Z,12.40
2022-11-28T13:23:59.882Z,12.50
2022-11-28T13:26:46.091Z,12.50
2022-11-28T13:29:21.880Z,12.50
2022-11-28T13:31:51.814Z,12.60
2022-11-28T13:34:21.595Z,12.60
2022-11-28T13:39:59.450Z,12.70
2022-11-28T13:43:11.972Z,12.70
2022-11-28T13:45:45.865Z,12.70
2022-11-28T13:49:13.224Z,12.70
2022-11-28T13:51:33.070Z,12.70
2022-11-28T13:54:21.731Z,12.60
2022-11-28T13:57:03.636Z,12.50
2022-11-28T13:59:32.637Z,12.40
2022-11-28T14:02:03.673Z,12.30
2022-11-28T14:04:33.019Z,12.30
2022-11-28T14:07:00.422Z,12.30
2022-11-28T14:09:33.508Z,12.30
2022-11-28T14:12:23.150Z,12.30
2022-11-28T14:15:10.086Z,12.40
2022-11-28T14:17:58.001Z,12.50
2022-11-28T14:20:29.431Z,12.40
2022-11-28T14:23:20.793Z,12.40
2022-11-28T14:25:52.946Z,12.30
2022-11-28T14:28:28.599Z,12.20
2022-11-28T14:31:17.589Z,12.20
2022-11-28T14:33:47.472Z,12.30
2022-11-28T14:36:34.236Z,12.20
2022-11-28T14:39:17.199Z,12.20
2022-11-28T14:42:06.297Z,12.20
2022-11-28T14:44:53.114Z,12.20
2022-11-28T14:47:35.781Z,12.30
2022-11-28T14:50:06.658Z,12.30
2022-11-28T14:52:39.471Z,12.20
2022-11-28T14:55:12.001Z,12.20
2022-11-28T14:57:45.557Z,12.20
2022-11-28T15:00:24.516Z,12.20
2022-11-28T15:03:30.072Z,12.20
2022-11-28T15:06:16.948Z,12.10
2022-11-28T15:09:02.742Z,12.20
2022-11-28T15:11:58.993Z,12.10
2022-11-28T15:14:28.470Z,12.20
2022-11-28T15:17:10.528Z,12.20
2022-11-28T15:19:41.399Z,12.20
2022-11-28T15:22:48.033Z,12.30
2022-11-28T15:25:37.553Z,12.10
2022-11-28T15:28:14.955Z,12.10
2022-11-28T15:30:53.618Z,12.10
2022-11-28T15:33:21.847Z,12.10
2022-11-28T15:36:13.250Z,12.10
2022-11-28T15:38:43.820Z,12.10
2022-11-28T15:41:11.600Z,12.10
2022-11-28T15:43:42.774Z,12.10
2022-11-28T15:46:31.518Z,12.10
2022-11-28T15:49:01.966Z,12.10
2022-11-28T15:51:33.700Z,12.10
2022-11-28T15:54:03.492Z,12.00
2022-11-28T15:56:30.879Z,12.00
2022-11-28T15:58:58.861Z,12.00
2022-11-28T16:01:27.704Z,12.00
2022-11-28T16:04:27.718Z,12.00
2022-11-28T16:06:58.622Z,12.00
2022-11-28T16:09:31.143Z,11.90
2022-11-28T16:11:58.757Z,11.90
2022-11-28T16:14:31.934Z,11.90
2022-11-28T16:17:01.855Z,11.90
2022-11-28T16:19:33.207Z,11.90
2022-11-28T16:22:03.194Z,11.90
2022-11-28T16:24:43.102Z,12.00
2022-11-28T16:27:29.302Z,12.00
2022-11-28T16:29:59.139Z,12.00
2022-11-28T16:32:40.218Z,12.00
2022-11-28T16:35:12.597Z,12.00
2022-11-28T16:37:39.934Z,11.90
2022-11-28T16:40:15.122Z,12.00
2022-11-28T16:42:42.968Z,12.00
2022-11-28T16:45:16.299Z,12.00
2022-11-28T16:47:45.740Z,12.00
2022-11-28T16:50:24.994Z,12.00
2022-11-28T16:52:54.113Z,12.10
2022-11-28T16:55:30.453Z,12.00
2022-11-28T16:58:11.681Z,12.00
2022-11-28T17:00:40.812Z,12.00
2022-11-28T17:03:11.704Z,12.00
2022-11-28T17:05:39.964Z,12.00
2022-11-28T17:08:08.563Z,12.00
2022-11-28T17:10:35.677Z,12.00
2022-11-28T17:13:02.621Z,12.00
2022-11-28T17:15:29.681Z,12.00
2022-11-28T17:17:57.793Z,12.00
2022-11-28T17:20:25.057Z,12.00
2022-11-28T17:22:54.416Z,12.20
2022-11-28T17:25:21.416Z,12.10
2022-11-28T17:27:48.917Z,12.10
2022-11-28T17:30:18.810Z,12.10
2022-11-28T17:32:49.043Z,12.10
2022-11-28T17:35:24.437Z,12.10
2022-11-28T17:37:51.456Z,12.10
2022-11-28T17:40:33.816Z,12.10
2022-11-28T17:43:01.407Z,12.20
2022-11-28T17:45:34.228Z,12.10
2022-11-28T17:48:02.221Z,12.10
2022-11-28T17:50:30.630Z,12.00
2022-11-28T17:52:58.072Z,12.00
2022-11-28T17:55:25.835Z,11.90
2022-11-28T17:57:55.761Z,12.00
2022-11-28T18:00:23.933Z,11.90
2022-11-28T18:02:53.966Z,11.90
2022-11-28T18:05:22.124Z,11.90
2022-11-28T18:07:50.235Z,11.80
2022-11-28T18:10:17.483Z,11.80
2022-11-28T18:12:44.574Z,11.80
2022-11-28T18:15:11.723Z,11.80
2022-11-28T18:17:39.492Z,11.80
2022-11-28T18:20:07.879Z,11.80
2022-11-28T18:22:35.012Z,11.80
2022-11-28T18:25:02.841Z,11.80
2022-11-28T18:27:30.002Z,11.80
2022-11-28T18:29:58.310Z,11.80
2022-11-28T18:32:26.071Z,11.70
2022-11-28T18:34:53.981Z,11.70
2022-11-28T18:37:21.127Z,11.70
2022-11-28T18:39:48.981Z,11.60
2022-11-28T18:42:18.292Z,11.60
2022-11-28T18:44:45.629Z,11.60
2022-11-28T18:47:13.289Z,11.50
2022-11-28T18:49:40.964Z,11.50
2022-11-28T18:52:08.489Z,11.40
2022-11-28T18:54:39.333Z,11.40
2022-11-28T18:57:08.436Z,11.40
2022-11-28T18:59:36.590Z,11.40
2022-11-28T19:02:03.961Z,11.30
2022-11-28T19:04:31.247Z,11.30
2022-11-28T19:06:59.807Z,11.30
2022-11-28T19:09:27.100Z,11.30
2022-11-28T19:11:56.243Z,11.30
2022-11-28T19:14:24.941Z,11.30
2022-11-28T19:16:54.211Z,11.30
2022-11-28T19:19:21.864Z,11.30
2022-11-28T19:21:50.040Z,11.30
2022-11-28T19:24:18.395Z,11.30
2022-11-28T19:26:46.720Z,11.30
2022-11-28T19:29:14.155Z,11.30
2022-11-28T19:31:45.842Z,11.20
2022-11-28T19:34:15.486Z,11.30
2022-11-28T19:36:52.383Z,11.20
2022-11-28T19:39:22.606Z,11.20
2022-11-28T19:41:52.672Z,11.10
2022-11-28T19:44:24.699Z,11.20
2022-11-28T19:46:53.720Z,11.20
2022-11-28T19:49:24.897Z,11.10
2022-11-28T19:51:54.903Z,11.10
2022-11-28T19:55:13.887Z,11.10
2022-11-28T19:57:44.298Z,11.00
2022-11-28T20:00:12.534Z,11.00
2022-11-28T20:02:47.954Z,11.10
2022-11-28T20:05:15.843Z,11.10
2022-11-28T20:07:43.352Z,11.00
2022-11-28T20:10:12.630Z,11.00
2022-11-28T20:12:40.014Z,11.00
2022-11-28T20:15:11.475Z,11.00
2022-11-28T20:17:42.323Z,10.90
2022-11-28T20:20:11.002Z,10.90
2022-11-28T20:22:38.993Z,10.80
2022-11-28T20:25:10.527Z,10.80
2022-11-28T20:27:39.861Z,10.70
2022-11-28T20:30:07.886Z,10.70
2022-11-28T20:32:35.883Z,10.60
2022-11-28T20:35:09.474Z,10.60
2022-11-28T20:37:48.961Z,10.70
2022-11-28T20:40:20.633Z,10.60
2022-11-28T20:42:51.409Z,10.60
2022-11-28T20:45:24.950Z,10.60
2022-11-28T20:47:52.465Z,10.60
2022-11-28T20:50:20.721Z,10.60
2022-11-28T20:52:48.105Z,10.60
2022-11-28T20:55:15.500Z,10.70
2022-11-28T20:57:42.692Z,10.70
2022-11-28T21:00:12.775Z,10.70
2022-11-28T21:02:40.857Z,10.70
2022-11-28T21:05:08.532Z,10.70
2022-11-28T21:07:36.022Z,10.70
2022-11-28T21:10:05.100Z,10.70
2022-11-28T21:12:34.485Z,10.70
2022-11-28T21:15:03.601Z,10.60
2022-11-28T21:17:31.729Z,10.70
2022-11-28T21:19:58.867Z,10.70
2022-11-28T21:22:26.087Z,10.70
2022-11-28T21:24:53.472Z,10.70
2022-11-28T21:27:20.512Z,10.70
2022-11-28T21:29:52.468Z,10.70
2022-11-28T21:32:20.386Z,10.70
2022-11-28T21:34:47.843Z,10.60
2022-11-28T21:37:14.991Z,10.60
2022-11-28T21:39:42.496Z,10.60
2022-11-28T21:42:09.894Z,10.50
2022-11-28T21:44:38.896Z,10.60
2022-11-28T21:47:08.614Z,10.50
2022-11-28T21:49:35.972Z,10.50
2022-11-28T21:52:03.271Z,10.50
2022-11-28T21:54:31.874Z,10.50
2022-11-28T21:57:00.378Z,10.40
2022-11-28T21:59:28.340Z,10.40
2022-11-28T22:01:56.668Z,10.40
2022-11-28T22:04:24.074Z,10.30
2022-11-28T22:06:56.656Z,10.30
2022-11-28T22:09:24.622Z,10.20
2022-11-28T22:11:55.865Z,10.20
2022-11-28T22:14:23.025Z,10.20
2022-11-28T22:16:50.671Z,10.20
2022-11-28T22:19:19.584Z,10.20
2022-11-28T22:21:51.879Z,10.10
2022-11-28T22:24:22.570Z,10.10
2022-11-28T22:26:51.200Z,10.10
2022-11-28T22:29:19.652Z,10.10
2022-11-28T22:31:46.787Z,10.10
2022-11-28T22:34:14.527Z,10.00
2022-11-28T22:36:41.767Z,10.10
2022-11-28T22:39:10.853Z,10.00
2022-11-28T22:41:38.492Z,10.00
2022-11-28T22:44:05.834Z,10.00
2022-11-28T22:46:33.976Z,10.00
2022-11-28T22:49:02.381Z,10.00
2022-11-28T22:51:31.670Z,9.90
2022-11-28T22:54:02.206Z,9.90
2022-11-28T22:56:34.133Z,9.90
2022-11-28T22:59:05.239Z,9.90
2022-11-28T23:01:35.003Z,9.90
2022-11-28T23:04:02.724Z,9.90
2022-11-28T23:06:32.863Z,9.90
2022-11-28T23:09:03.908Z,9.90
2022-11-28T23:11:33.365Z,9.90
2022-11-28T23:14:02.113Z,9.80
2022-11-28T23:16:37.946Z,9.80
2022-11-28T23:19:12.355Z,9.70
2022-11-28T23:21:43.230Z,9.70
2022-11-28T23:24:15.203Z,9.70
2022-11-28T23:26:45.436Z,9.70
2022-11-28T23:29:13.780Z,9.70
2022-11-28T23:31:43.652Z,9.60
2022-11-28T23:34:12.077Z,9.60
2022-11-28T23:36:45.132Z,9.60
2022-11-28T23:39:15.534Z,9.60
2022-11-28T23:41:43.665Z,9.60
2022-11-28T23:44:12.643Z,9.60
2022-11-28T23:46:41.035Z,9.60
2022-11-28T23:49:08.451Z,9.60
2022-11-28T23:51:35.727Z,9.50
2022-11-28T23:54:04.023Z,9.50
2022-11-28T23:56:34.157Z,9.50
2022-11-28T23:59:03.355Z,9.50
